M I D A S
Marine Information and Data Acquisition System
Tripno 408 of the Zeeleeuw from 2002-11-29 08:36:27 to 2002-11-29 12:55:31
Back to CruiseResearch ActivitiesStationsMapUnderway DataData graphs

EquipmentUnitsComments
TimeDGPSUTC
LatitudeDGPSDM.mWGS84
LongitudeDGPSDM.mWGS84
SpeedMeteo Stationm/sRelative wind speed
DirectionMeteo StationdegRelative wind direction
TemperatureMeteo Stationdeg CelciusAir temperature
PressureMeteo StationPaAtmospheric pressure
HumidityMeteo Station%Relative humidity
Missing or incorrect values are displayed as -999
Metereological data collected by the RV Zeeleeuw from 2002-11-29 08:36:27 to 2002-11-29 12:55:31
                                                                                    Next 1000 lines
Time Latitude Longitude Speed Direction Temperature Pressure Humidity
2002-11-29 08:36:36 51°13.591 2°56.119 1.7 154 7.7 100980 89
2002-11-29 08:36:40 51°13.592 2°56.116 1.7 166 7.7 100980 89
2002-11-29 08:36:46 51°13.594 2°56.112 2.8 167 7.7 100980 89
2002-11-29 08:36:51 51°13.595 2°56.108 3.1 174 7.7 100980 89
2002-11-29 08:36:56 51°13.596 2°56.103 1.8 184 7.7 100980 89
2002-11-29 08:37:00 51°13.597 2°56.1 2.1 182 7.7 100980 89
2002-11-29 08:37:06 51°13.599 2°56.094 2.1 174 7.7 100980 89
2002-11-29 08:37:11 51°13.6 2°56.089 1.8 157 7.7 100980 89
2002-11-29 08:37:16 51°13.602 2°56.083 2 155 7.7 100980 89
2002-11-29 08:37:21 51°13.603 2°56.078 2.4 139 7.7 100980 89
2002-11-29 08:37:26 51°13.604 2°56.073 2.9 134 7.7 100980 89
2002-11-29 08:37:31 51°13.605 2°56.069 2.2 153 7.7 100980 89
2002-11-29 08:37:36 51°13.606 2°56.064 2.3 197 7.7 100980 89
2002-11-29 08:37:40 51°13.607 2°56.061 2.1 158 7.7 100980 89
2002-11-29 08:37:46 51°13.608 2°56.056 1.9 194 7.7 100980 89
2002-11-29 08:37:51 51°13.608 2°56.053 1.6 173 7.7 100980 89
2002-11-29 08:37:55 51°13.609 2°56.051 2.1 184 7.7 100980 89
2002-11-29 08:38:00 51°13.609 2°56.049 2.9 161 7.7 100980 89
2002-11-29 08:38:05 51°13.61 2°56.047 3.1 165 7.7 100980 89
2002-11-29 08:38:10 51°13.61 2°56.046 2.7 191 7.7 100980 89
2002-11-29 08:38:16 51°13.611 2°56.044 2.6 205 7.7 100980 89
2002-11-29 08:38:20 51°13.611 2°56.042 2.3 196 7.7 100980 89
2002-11-29 08:38:24 51°13.612 2°56.039 1.9 181 7.7 100980 89
2002-11-29 08:38:30 51°13.613 2°56.036 2.4 205 7.7 100980 89
2002-11-29 08:38:35 51°13.614 2°56.031 1.8 189 7.7 100980 89
2002-11-29 08:38:40 51°13.615 2°56.027 2.1 182 7.7 100970 89
2002-11-29 08:38:46 51°13.616 2°56.022 1.9 160 7.7 100970 89
2002-11-29 08:38:51 51°13.617 2°56.017 2.3 185 7.8 100980 89
2002-11-29 08:38:56 51°13.619 2°56.013 1.9 149 7.8 100980 89
2002-11-29 08:39:00 51°13.62 2°56.008 1.9 138 7.8 100970 89
2002-11-29 08:39:07 51°13.624 2°56.001 1.7 152 7.8 100970 89
2002-11-29 08:39:11 51°13.625 2°55.996 1.7 151 7.8 100980 89
2002-11-29 08:39:16 51°13.628 2°55.991 1.9 153 7.8 100980 89
2002-11-29 08:39:21 51°13.63 2°55.985 2.4 159 7.8 100980 89
2002-11-29 08:39:27 51°13.633 2°55.978 2.6 143 7.8 100980 89
2002-11-29 08:39:31 51°13.635 2°55.973 2.5 144 7.8 100980 89
2002-11-29 08:39:36 51°13.637 2°55.967 2 172 7.8 100980 89
2002-11-29 08:39:41 51°13.64 2°55.961 2.5 173 7.8 100980 89
2002-11-29 08:39:46 51°13.643 2°55.955 2.1 147 7.8 100980 89
2002-11-29 08:39:51 51°13.646 2°55.948 1.5 159 7.8 100980 89
2002-11-29 08:39:56 51°13.649 2°55.942 1.4 197 7.8 100980 89
2002-11-29 08:40:01 51°13.653 2°55.935 1.6 145 7.8 100980 89
2002-11-29 08:40:07 51°13.656 2°55.927 2.3 159 7.8 100980 89
2002-11-29 08:40:11 51°13.658 2°55.922 1.6 143 7.8 100980 89
2002-11-29 08:40:16 51°13.661 2°55.916 2.4 164 7.8 100980 89
2002-11-29 08:40:20 51°13.664 2°55.91 2.8 173 7.8 100980 89
2002-11-29 08:40:26 51°13.667 2°55.902 2.6 150 7.8 100980 89
2002-11-29 08:40:31 51°13.67 2°55.895 3.1 151 7.8 100980 89
2002-11-29 08:40:36 51°13.673 2°55.887 2.9 178 7.8 100980 89
2002-11-29 08:40:40 51°13.675 2°55.882 2.6 130 7.8 100980 89
2002-11-29 08:40:46 51°13.678 2°55.873 2.5 158 7.8 100980 89
2002-11-29 08:40:51 51°13.681 2°55.865 2.6 164 7.8 100980 89
2002-11-29 08:40:56 51°13.683 2°55.858 2.7 144 7.8 100980 89
2002-11-29 08:41:01 51°13.686 2°55.85 2.7 120 7.8 100980 89
2002-11-29 08:41:06 51°13.688 2°55.843 2.3 143 7.8 100980 89
2002-11-29 08:41:11 51°13.69 2°55.835 1.9 165 7.8 100980 89
2002-11-29 08:41:16 51°13.693 2°55.827 2.8 133 7.8 100980 89
2002-11-29 08:41:20 51°13.694 2°55.82 3.5 121 7.8 100980 89
2002-11-29 08:41:26 51°13.697 2°55.811 2.9 134 7.8 100980 89
2002-11-29 08:41:31 51°13.699 2°55.803 2.3 112 7.8 100980 89
2002-11-29 08:41:36 51°13.7 2°55.796 2.6 123 7.8 100980 89
2002-11-29 08:41:41 51°13.702 2°55.788 2.4 135 7.8 100980 89
2002-11-29 08:41:46 51°13.704 2°55.782 3 122 7.8 100980 89
2002-11-29 08:41:51 51°13.705 2°55.776 4.1 133 7.8 100980 89
2002-11-29 08:41:55 51°13.706 2°55.772 3.9 164 7.8 100980 89
2002-11-29 08:42:00 51°13.707 2°55.767 2.8 165 7.8 100980 89
2002-11-29 08:42:04 51°13.708 2°55.764 2.2 187 7.8 100980 89
2002-11-29 08:42:10 51°13.708 2°55.761 3.1 138 7.8 100980 89
2002-11-29 08:42:15 51°13.709 2°55.759 2.8 144 7.8 100980 89
2002-11-29 08:42:20 51°13.709 2°55.758 2.6 137 7.8 100980 89
2002-11-29 08:42:26 51°13.71 2°55.757 2.9 121 7.8 100980 89
2002-11-29 08:42:30 51°13.71 2°55.758 2.9 124 7.8 100980 89
2002-11-29 08:42:35 51°13.711 2°55.759 2.7 134 7.8 100980 89
2002-11-29 08:42:40 51°13.711 2°55.76 2.7 115 7.9 100980 89
2002-11-29 08:42:44 51°13.712 2°55.762 3.2 127 7.9 100980 89
2002-11-29 08:42:50 51°13.713 2°55.764 3 130 7.8 100980 89
2002-11-29 08:42:55 51°13.714 2°55.766 3.9 106 7.8 100980 89
2002-11-29 08:43:00 51°13.714 2°55.767 3.7 112 7.9 100980 89
2002-11-29 08:43:05 51°13.715 2°55.768 3.9 113 7.9 100980 89
2002-11-29 08:43:10 51°13.716 2°55.769 3.8 105 7.9 100980 89
2002-11-29 08:43:15 51°13.716 2°55.769 4.2 112 7.9 100980 89
2002-11-29 08:43:20 51°13.716 2°55.769 4.1 85 7.9 100980 89
2002-11-29 08:43:26 51°13.716 2°55.767 3 63 7.9 100980 89
2002-11-29 08:43:30 51°13.715 2°55.766 3.3 93 7.9 100980 89
2002-11-29 08:43:35 51°13.714 2°55.764 2.8 97 7.9 100980 89
2002-11-29 08:43:40 51°13.713 2°55.762 2.8 99 7.9 100980 89
2002-11-29 08:43:45 51°13.713 2°55.76 3.4 85 7.9 100980 89
2002-11-29 08:43:51 51°13.711 2°55.756 3.5 82 7.9 100980 89
2002-11-29 08:43:56 51°13.71 2°55.753 4.6 95 7.9 100980 89
2002-11-29 08:44:01 51°13.71 2°55.751 4 103 7.9 100980 89
2002-11-29 08:44:07 51°13.708 2°55.747 3.2 103 7.9 100980 89
2002-11-29 08:44:11 51°13.708 2°55.745 3.7 113 7.9 100980 89
2002-11-29 08:44:16 51°13.707 2°55.743 3.1 104 7.9 100980 89
2002-11-29 08:44:21 51°13.706 2°55.74 3.1 96 7.9 100980 89
2002-11-29 08:44:26 51°13.705 2°55.738 2.9 103 7.9 100980 89
2002-11-29 08:44:30 51°13.704 2°55.736 2.6 90 7.9 100980 89
2002-11-29 08:44:35 51°13.704 2°55.734 2.5 105 7.9 100980 89
2002-11-29 08:44:40 51°13.703 2°55.733 2.4 105 7.9 100980 89
2002-11-29 08:44:45 51°13.703 2°55.731 2.3 104 7.9 100980 89
2002-11-29 08:44:50 51°13.702 2°55.73 2.5 103 7.9 100980 89
2002-11-29 08:44:56 51°13.701 2°55.729 2.7 87 7.9 100980 89
2002-11-29 08:45:00 51°13.701 2°55.728 2.8 112 7.9 100980 89
2002-11-29 08:45:05 51°13.701 2°55.727 3.4 90 7.9 100980 89
2002-11-29 08:45:10 51°13.701 2°55.727 2.7 99 7.9 100980 89
2002-11-29 08:45:15 51°13.701 2°55.727 3.1 80 7.9 100980 89
2002-11-29 08:45:20 51°13.701 2°55.727 2.8 95 7.9 100980 89
2002-11-29 08:45:26 51°13.701 2°55.727 3.2 97 7.9 100980 89
2002-11-29 08:45:30 51°13.702 2°55.727 2.9 99 7.9 100980 89
2002-11-29 08:45:36 51°13.702 2°55.727 2.8 82 7.9 100980 89
2002-11-29 08:45:40 51°13.703 2°55.728 2.8 93 7.9 100980 89
2002-11-29 08:45:44 51°13.704 2°55.728 2.6 86 7.9 100980 89
2002-11-29 08:45:50 51°13.705 2°55.728 2.6 96 7.9 100980 89
2002-11-29 08:45:56 51°13.707 2°55.729 4.5 79 7.9 100980 89
2002-11-29 08:46:00 51°13.709 2°55.729 4 69 7.9 100980 89
2002-11-29 08:46:04 51°13.711 2°55.729 3.2 63 7.9 100980 89
2002-11-29 08:46:09 51°13.713 2°55.729 2.4 49 7.9 100980 89
2002-11-29 08:46:16 51°13.717 2°55.728 2.6 51 7.9 100980 89
2002-11-29 08:46:20 51°13.719 2°55.727 2.3 40 7.9 100980 89
2002-11-29 08:46:24 51°13.722 2°55.725 2.1 47 7.9 100980 89
2002-11-29 08:46:30 51°13.726 2°55.722 1.3 31 7.9 100980 89
2002-11-29 08:46:35 51°13.73 2°55.72 1.2 14 7.9 100980 89
2002-11-29 08:46:40 51°13.734 2°55.717 1.5 23 7.9 100980 89
2002-11-29 08:46:46 51°13.739 2°55.713 1.3 13 7.9 100980 89
2002-11-29 08:46:50 51°13.743 2°55.71 1.3 3 7.9 100980 89
2002-11-29 08:46:55 51°13.747 2°55.706 2.1 352 7.9 100980 89
2002-11-29 08:47:00 51°13.752 2°55.702 1.9 354 8 100980 89
2002-11-29 08:47:05 51°13.757 2°55.698 1.6 345 8 100980 89
2002-11-29 08:47:10 51°13.762 2°55.694 1.7 350 8 100980 89
2002-11-29 08:47:16 51°13.769 2°55.688 0.9 331 8 100980 89
2002-11-29 08:47:20 51°13.774 2°55.684 1 313 8 100980 89
2002-11-29 08:47:25 51°13.78 2°55.679 1 312 8 100980 89
2002-11-29 08:47:30 51°13.786 2°55.674 1.2 299 8 100980 89
2002-11-29 08:47:36 51°13.795 2°55.667 0.9 298 8 100980 89
2002-11-29 08:47:40 51°13.8 2°55.662 1 305 8 100980 89
2002-11-29 08:47:45 51°13.808 2°55.656 1.8 306 8 100980 89
2002-11-29 08:47:50 51°13.815 2°55.65 1 316 8 100980 89
2002-11-29 08:47:55 51°13.823 2°55.644 1.6 306 8 100980 89
2002-11-29 08:48:00 51°13.83 2°55.638 1.5 287 8 100980 89
2002-11-29 08:48:06 51°13.84 2°55.631 1.1 274 8 100980 89
2002-11-29 08:48:11 51°13.848 2°55.625 1.1 329 8 100980 89
2002-11-29 08:48:15 51°13.855 2°55.62 1.3 279 8 100980 89
2002-11-29 08:48:20 51°13.863 2°55.614 1.6 278 8 100980 89
2002-11-29 08:48:24 51°13.87 2°55.609 1.9 293 8 100980 89
2002-11-29 08:48:30 51°13.881 2°55.602 1.4 285 8 100980 89
2002-11-29 08:48:35 51°13.89 2°55.596 1.1 290 8 100980 89
2002-11-29 08:48:40 51°13.899 2°55.59 1 288 8.1 100980 89
2002-11-29 08:48:44 51°13.906 2°55.585 1 279 8.1 100980 89
2002-11-29 08:48:50 51°13.917 2°55.578 0.9 288 8 100980 89
2002-11-29 08:48:56 51°13.928 2°55.571 0.8 310 8 100980 89
2002-11-29 08:49:00 51°13.935 2°55.565 1.5 291 8.1 100980 89
2002-11-29 08:49:06 51°13.946 2°55.558 1.7 305 8.1 100980 89
2002-11-29 08:49:11 51°13.956 2°55.551 1.5 321 8 100980 89
2002-11-29 08:49:16 51°13.965 2°55.545 1.4 279 8 100980 89
2002-11-29 08:49:19 51°13.971 2°55.542 1.2 270 8.1 100980 89
2002-11-29 08:49:25 51°13.983 2°55.535 1.3 247 8.1 100980 89
2002-11-29 08:49:30 51°13.992 2°55.528 1.2 247 8.1 100980 89
2002-11-29 08:49:35 51°14.002 2°55.522 1.5 278 8.1 100980 89
2002-11-29 08:49:40 51°14.012 2°55.516 1.2 274 8.1 100980 89
2002-11-29 08:49:46 51°14.024 2°55.509 1 248 8.1 100980 89
2002-11-29 08:49:51 51°14.034 2°55.504 0.5 252 8.1 100980 89
2002-11-29 08:49:55 51°14.042 2°55.499 0.1 327 8.1 100980 89
2002-11-29 08:50:00 51°14.051 2°55.493 0.8 310 8.1 100980 89
2002-11-29 08:50:05 51°14.061 2°55.487 1.2 298 8.1 100980 89
2002-11-29 08:50:10 51°14.071 2°55.481 0.6 322 8.1 100980 89
2002-11-29 08:50:16 51°14.083 2°55.473 0.9 327 8.1 100980 89
2002-11-29 08:50:20 51°14.092 2°55.468 1.6 300 8.1 100980 89
2002-11-29 08:50:25 51°14.102 2°55.462 1.9 305 8.1 100980 89
2002-11-29 08:50:31 51°14.114 2°55.454 1.7 306 8.1 100980 89
2002-11-29 08:50:35 51°14.122 2°55.448 1.6 275 8.1 100980 89
2002-11-29 08:50:40 51°14.132 2°55.44 2.2 275 8.1 100980 88
2002-11-29 08:50:45 51°14.142 2°55.432 2.2 282 8.1 100980 88
2002-11-29 08:50:50 51°14.152 2°55.423 1.5 316 8.1 100980 88
2002-11-29 08:50:55 51°14.161 2°55.414 2.1 306 8.1 100980 88
2002-11-29 08:51:00 51°14.171 2°55.404 2.8 293 8.2 100980 88
2002-11-29 08:51:06 51°14.182 2°55.392 1.5 336 8.2 100980 88
2002-11-29 08:51:10 51°14.189 2°55.384 2.6 322 8.1 100980 88
2002-11-29 08:51:16 51°14.2 2°55.371 2.1 277 8.1 100980 88
2002-11-29 08:51:20 51°14.208 2°55.361 3.1 276 8.1 100980 88
2002-11-29 08:51:25 51°14.217 2°55.349 2.7 269 8.1 100980 88
2002-11-29 08:51:30 51°14.226 2°55.335 3.1 258 8.1 100980 88
2002-11-29 08:51:36 51°14.237 2°55.317 3 278 8.1 100980 88
2002-11-29 08:51:40 51°14.244 2°55.305 3.9 290 8.1 100980 88
2002-11-29 08:51:45 51°14.252 2°55.29 3.9 305 8.1 100980 88
2002-11-29 08:51:50 51°14.261 2°55.274 3.1 302 8.1 100980 88
2002-11-29 08:51:56 51°14.271 2°55.254 3.4 292 8.1 100980 88
2002-11-29 08:52:00 51°14.278 2°55.24 3.4 284 8.1 100980 88
2002-11-29 08:52:05 51°14.286 2°55.222 4.3 261 8.1 100980 88
2002-11-29 08:52:10 51°14.294 2°55.205 4.1 275 8.1 100980 88
2002-11-29 08:52:15 51°14.302 2°55.188 4.3 264 8.1 100980 88
2002-11-29 08:52:20 51°14.311 2°55.17 4.2 254 8.2 100980 88
2002-11-29 08:52:25 51°14.32 2°55.153 4.9 263 8.2 100980 88
2002-11-29 08:52:30 51°14.328 2°55.136 5.5 271 8.2 100980 88
2002-11-29 08:52:35 51°14.336 2°55.118 4.2 276 8.2 100980 88
2002-11-29 08:52:40 51°14.345 2°55.1 5.1 272 8.2 100980 88
2002-11-29 08:52:46 51°14.355 2°55.079 4.3 297 8.2 100980 88
2002-11-29 08:52:51 51°14.364 2°55.06 4.5 291 8.2 100980 88
2002-11-29 08:52:56 51°14.372 2°55.041 6.4 266 8.2 100980 88
2002-11-29 08:53:00 51°14.379 2°55.025 6.3 272 8.2 100980 88
2002-11-29 08:53:06 51°14.387 2°54.999 6.5 280 8.2 100980 88
2002-11-29 08:53:10 51°14.393 2°54.981 6.7 290 8.2 100980 88
2002-11-29 08:53:16 51°14.4 2°54.953 7.1 277 8.2 100980 88
2002-11-29 08:53:20 51°14.404 2°54.933 7.2 286 8.2 100980 88
2002-11-29 08:53:25 51°14.409 2°54.909 6.7 281 8.2 100980 88
2002-11-29 08:53:30 51°14.413 2°54.884 6 269 8.2 100980 88
2002-11-29 08:53:36 51°14.416 2°54.854 7 266 8.2 100980 88
2002-11-29 08:53:40 51°14.417 2°54.834 8.5 267 8.2 100980 88
2002-11-29 08:53:45 51°14.418 2°54.809 8.7 265 8.2 100980 88
2002-11-29 08:53:50 51°14.419 2°54.783 9.1 268 8.2 100980 88
2002-11-29 08:53:56 51°14.42 2°54.753 9.3 273 8.2 100980 88
2002-11-29 08:54:00 51°14.42 2°54.732 8.7 273 8.2 100970 88
2002-11-29 08:54:04 51°14.42 2°54.712 9.5 271 8.2 100970 88
2002-11-29 08:54:10 51°14.419 2°54.681 8.6 278 8.2 100970 88
2002-11-29 08:54:16 51°14.419 2°54.651 9 264 8.2 100970 88
2002-11-29 08:54:20 51°14.418 2°54.63 9.1 273 8.2 100960 88
2002-11-29 08:54:24 51°14.418 2°54.609 9.6 269 8.2 100960 88
2002-11-29 08:54:31 51°14.418 2°54.573 9.3 273 8.2 100960 88
2002-11-29 08:54:35 51°14.417 2°54.552 10 279 8.2 100960 88
2002-11-29 08:54:40 51°14.415 2°54.527 9.2 273 8.2 100960 88
2002-11-29 08:54:46 51°14.413 2°54.496 9.5 271 8.2 100960 88
2002-11-29 08:54:50 51°14.411 2°54.476 8.9 269 8.3 100960 88
2002-11-29 08:54:56 51°14.407 2°54.446 11.5 267 8.3 100960 88
2002-11-29 08:55:00 51°14.404 2°54.426 11.4 269 8.2 100960 88
2002-11-29 08:55:04 51°14.4 2°54.407 10.5 270 8.2 100960 88
2002-11-29 08:55:10 51°14.395 2°54.378 10.4 270 8.2 100960 88
2002-11-29 08:55:15 51°14.39 2°54.353 9.8 265 8.2 100960 88
2002-11-29 08:55:20 51°14.385 2°54.329 10.5 268 8.2 100950 88
2002-11-29 08:55:26 51°14.379 2°54.3 9.6 264 8.2 100950 88
2002-11-29 08:55:30 51°14.375 2°54.281 10.7 264 8.3 100950 88
2002-11-29 08:55:35 51°14.369 2°54.257 10.6 265 8.3 100950 88
2002-11-29 08:55:40 51°14.363 2°54.234 10 261 8.2 100950 88
2002-11-29 08:55:46 51°14.354 2°54.207 9.6 258 8.2 100950 88
2002-11-29 08:55:50 51°14.348 2°54.189 9.8 260 8.3 100950 88
2002-11-29 08:55:55 51°14.34 2°54.166 11.1 264 8.3 100950 88
2002-11-29 08:56:00 51°14.332 2°54.144 9.8 267 8.2 100950 88
2002-11-29 08:56:05 51°14.325 2°54.121 11 266 8.2 100950 88
2002-11-29 08:56:10 51°14.317 2°54.098 10.9 265 8.2 100950 88
2002-11-29 08:56:15 51°14.309 2°54.075 10.2 261 8.2 100950 88
2002-11-29 08:56:20 51°14.302 2°54.051 11.6 266 8.2 100950 88
2002-11-29 08:56:26 51°14.292 2°54.023 10.8 270 8.2 100950 88
2002-11-29 08:56:30 51°14.286 2°54.003 10.9 267 8.2 100950 88
2002-11-29 08:56:35 51°14.279 2°53.98 11.8 270 8.2 100950 88
2002-11-29 08:56:40 51°14.271 2°53.956 11.4 265 8.2 100950 88
2002-11-29 08:56:45 51°14.264 2°53.932 11.4 269 8.2 100950 88
2002-11-29 08:56:50 51°14.256 2°53.908 9.8 264 8.2 100950 88
2002-11-29 08:56:55 51°14.248 2°53.883 9.7 261 8.2 100950 88
2002-11-29 08:57:00 51°14.24 2°53.858 11.1 266 8.2 100950 88
2002-11-29 08:57:06 51°14.23 2°53.828 11.9 265 8.2 100950 88
2002-11-29 08:57:10 51°14.224 2°53.808 11.4 270 8.2 100950 88
2002-11-29 08:57:15 51°14.216 2°53.783 13.1 265 8.2 100950 88
2002-11-29 08:57:20 51°14.208 2°53.757 12.8 273 8.2 100940 88
2002-11-29 08:57:24 51°14.202 2°53.737 11.6 261 8.2 100940 88
2002-11-29 08:57:30 51°14.192 2°53.707 11.6 272 8.2 100940 88
2002-11-29 08:57:35 51°14.184 2°53.681 12.9 272 8.2 100940 88
2002-11-29 08:57:40 51°14.176 2°53.656 12.6 273 8.2 100940 88
2002-11-29 08:57:45 51°14.168 2°53.631 12.2 272 8.2 100940 88
2002-11-29 08:57:50 51°14.16 2°53.605 14 276 8.2 100940 88
2002-11-29 08:57:55 51°14.152 2°53.58 14 266 8.2 100940 88
2002-11-29 08:58:00 51°14.144 2°53.554 13 270 8.2 100940 88
2002-11-29 08:58:06 51°14.134 2°53.524 13.3 271 8.2 100940 88
2002-11-29 08:58:10 51°14.127 2°53.503 12.2 275 8.3 100950 88
2002-11-29 08:58:15 51°14.119 2°53.478 12.1 269 8.3 100950 88
2002-11-29 08:58:20 51°14.111 2°53.453 11 262 8.3 100920 88
2002-11-29 08:58:24 51°14.105 2°53.432 10.2 259 8.3 100920 88
2002-11-29 08:58:30 51°14.095 2°53.401 11.1 261 8.3 100930 88
2002-11-29 08:58:35 51°14.087 2°53.376 11.8 262 8.3 100930 88
2002-11-29 08:58:40 51°14.079 2°53.351 12.4 260 8.3 100940 88
2002-11-29 08:58:45 51°14.071 2°53.325 11.4 261 8.3 100940 88
2002-11-29 08:58:50 51°14.063 2°53.3 12 262 8.3 100950 88
2002-11-29 08:58:55 51°14.055 2°53.274 12.2 270 8.3 100950 88
2002-11-29 08:59:00 51°14.047 2°53.249 11.8 268 8.3 100940 88
2002-11-29 08:59:04 51°14.041 2°53.228 10.7 261 8.3 100940 88
2002-11-29 08:59:10 51°14.031 2°53.198 11.6 261 8.3 100940 88
2002-11-29 08:59:15 51°14.023 2°53.173 12.1 262 8.3 100940 88
2002-11-29 08:59:20 51°14.015 2°53.147 12.3 267 8.3 100940 88
2002-11-29 08:59:26 51°14.005 2°53.117 11.4 262 8.3 100940 88
2002-11-29 08:59:31 51°13.997 2°53.091 11.4 260 8.3 100950 88
2002-11-29 08:59:35 51°13.991 2°53.071 13.5 267 8.3 100950 88
2002-11-29 08:59:40 51°13.983 2°53.045 11.3 263 8.3 100930 88
2002-11-29 08:59:45 51°13.975 2°53.02 12.1 269 8.3 100930 88
2002-11-29 08:59:50 51°13.967 2°52.994 11.1 258 8.3 100940 88
2002-11-29 08:59:55 51°13.959 2°52.969 11.2 260 8.3 100940 88
2002-11-29 09:00:00 51°13.95 2°52.943 11.1 268 8.3 100930 88
2002-11-29 09:00:05 51°13.942 2°52.918 11.1 264 8.3 100930 88
2002-11-29 09:00:08 51°13.938 2°52.902 10.4 269 8.3 100930 88
2002-11-29 09:00:15 51°13.926 2°52.866 11.6 265 8.3 100930 88
2002-11-29 09:00:20 51°13.918 2°52.841 12.1 263 8.3 100930 88
2002-11-29 09:00:26 51°13.909 2°52.811 11.5 268 8.3 100930 88
2002-11-29 09:00:30 51°13.902 2°52.79 11 272 8.3 100940 88
2002-11-29 09:00:35 51°13.894 2°52.764 12.3 262 8.3 100940 88
2002-11-29 09:00:40 51°13.886 2°52.739 12.4 266 8.3 100940 88
2002-11-29 09:00:44 51°13.88 2°52.718 12 269 8.3 100940 88
2002-11-29 09:00:50 51°13.869 2°52.688 11.8 265 8.3 100940 88
2002-11-29 09:00:56 51°13.859 2°52.658 10.7 265 8.3 100940 88
2002-11-29 09:01:00 51°13.852 2°52.638 11.3 260 8.3 100940 88
2002-11-29 09:01:06 51°13.842 2°52.608 11.4 266 8.3 100940 88
2002-11-29 09:01:10 51°13.836 2°52.588 11.4 265 8.3 100940 88
2002-11-29 09:01:15 51°13.827 2°52.563 11.8 263 8.3 100940 88
2002-11-29 09:01:20 51°13.819 2°52.537 11.8 259 8.3 100940 88
2002-11-29 09:01:26 51°13.809 2°52.507 10.3 268 8.3 100940 88
2002-11-29 09:01:31 51°13.8 2°52.482 10.7 265 8.3 100930 88
2002-11-29 09:01:35 51°13.794 2°52.462 12.3 264 8.3 100930 88
2002-11-29 09:01:40 51°13.785 2°52.437 12.1 264 8.3 100940 88
2002-11-29 09:01:46 51°13.774 2°52.407 12 262 8.3 100940 88
2002-11-29 09:01:50 51°13.768 2°52.387 12 265 8.3 100940 88
2002-11-29 09:01:56 51°13.758 2°52.356 11 265 8.3 100940 88
2002-11-29 09:02:00 51°13.752 2°52.336 11.2 266 8.3 100940 88
2002-11-29 09:02:04 51°13.745 2°52.316 10.1 268 8.3 100940 88
2002-11-29 09:02:10 51°13.735 2°52.286 11.5 270 8.3 100930 88
2002-11-29 09:02:15 51°13.727 2°52.261 10.8 262 8.3 100930 88
2002-11-29 09:02:20 51°13.719 2°52.235 10.8 261 8.3 100930 88
2002-11-29 09:02:24 51°13.712 2°52.215 10.6 265 8.3 100930 88
2002-11-29 09:02:31 51°13.7 2°52.18 10.3 268 8.3 100940 88
2002-11-29 09:02:36 51°13.692 2°52.155 10.6 267 8.3 100940 88
2002-11-29 09:02:40 51°13.685 2°52.135 10.2 268 8.3 100940 88
2002-11-29 09:02:46 51°13.675 2°52.104 11 266 8.3 100940 88
2002-11-29 09:02:50 51°13.668 2°52.084 10.5 265 8.3 100950 88
2002-11-29 09:02:56 51°13.658 2°52.054 10.9 268 8.3 100950 88
2002-11-29 09:03:00 51°13.651 2°52.034 10.8 266 8.3 100950 88
2002-11-29 09:03:06 51°13.641 2°52.003 10.9 265 8.3 100950 88
2002-11-29 09:03:10 51°13.635 2°51.983 10.7 268 8.3 100950 88
2002-11-29 09:03:15 51°13.626 2°51.958 10.8 264 8.3 100950 88
2002-11-29 09:03:20 51°13.618 2°51.933 11.8 262 8.3 100940 88
2002-11-29 09:03:24 51°13.611 2°51.913 11.7 262 8.3 100940 88
2002-11-29 09:03:31 51°13.599 2°51.878 11.6 265 8.3 100950 88
2002-11-29 09:03:36 51°13.591 2°51.853 12.5 270 8.3 100950 88
2002-11-29 09:03:40 51°13.585 2°51.833 11.9 266 8.4 100950 88
2002-11-29 09:03:46 51°13.575 2°51.802 11.8 272 8.4 100950 88
2002-11-29 09:03:50 51°13.568 2°51.782 12 267 8.4 100950 88
2002-11-29 09:03:56 51°13.558 2°51.752 11.6 261 8.4 100950 88
2002-11-29 09:04:00 51°13.551 2°51.732 13.3 263 8.4 100950 88
2002-11-29 09:04:04 51°13.544 2°51.712 13.1 269 8.4 100950 88
2002-11-29 09:04:10 51°13.534 2°51.682 13 262 8.4 100940 88
2002-11-29 09:04:16 51°13.524 2°51.652 12.1 261 8.4 100940 88
2002-11-29 09:04:20 51°13.517 2°51.632 12 261 8.4 100940 88
2002-11-29 09:04:26 51°13.507 2°51.601 12 264 8.4 100940 88
2002-11-29 09:04:30 51°13.5 2°51.581 11.3 268 8.4 100940 88
2002-11-29 09:04:35 51°13.492 2°51.555 11.5 265 8.4 100940 88
2002-11-29 09:04:40 51°13.484 2°51.53 11.9 264 8.4 100940 88
2002-11-29 09:04:46 51°13.473 2°51.5 12.3 263 8.4 100940 88
2002-11-29 09:04:50 51°13.467 2°51.48 12.4 264 8.4 100940 88
2002-11-29 09:04:55 51°13.458 2°51.455 11.3 262 8.4 100940 88
2002-11-29 09:05:00 51°13.45 2°51.43 11.4 262 8.4 100940 88
2002-11-29 09:05:04 51°13.443 2°51.41 11.9 267 8.4 100940 88
2002-11-29 09:05:10 51°13.433 2°51.379 11.5 264 8.4 100940 88
2002-11-29 09:05:15 51°13.425 2°51.354 11.5 269 8.4 100940 88
2002-11-29 09:05:20 51°13.416 2°51.329 12 267 8.4 100940 88
2002-11-29 09:05:26 51°13.406 2°51.299 11.6 268 8.4 100940 88
2002-11-29 09:05:30 51°13.4 2°51.279 12.3 269 8.4 100940 88
2002-11-29 09:05:35 51°13.391 2°51.253 12.5 268 8.4 100940 88
2002-11-29 09:05:40 51°13.383 2°51.228 11.8 267 8.4 100940 88
2002-11-29 09:05:46 51°13.372 2°51.198 10.7 268 8.4 100940 88
2002-11-29 09:05:50 51°13.366 2°51.178 11.5 262 8.5 100940 88
2002-11-29 09:05:56 51°13.356 2°51.148 10.8 262 8.5 100940 88
2002-11-29 09:06:00 51°13.349 2°51.128 11.5 264 8.5 100940 88
2002-11-29 09:06:06 51°13.339 2°51.098 12.1 263 8.5 100940 88
2002-11-29 09:06:10 51°13.332 2°51.077 11.2 262 8.5 100940 88
2002-11-29 09:06:16 51°13.322 2°51.047 11.6 265 8.5 100940 88
2002-11-29 09:06:20 51°13.316 2°51.027 12.3 267 8.5 100940 88
2002-11-29 09:06:25 51°13.307 2°51.002 11.8 266 8.5 100940 88
2002-11-29 09:06:30 51°13.299 2°50.977 12.1 266 8.5 100940 88
2002-11-29 09:06:35 51°13.29 2°50.952 12.4 262 8.5 100940 88
2002-11-29 09:06:40 51°13.282 2°50.927 11.2 267 8.5 100940 88
2002-11-29 09:06:46 51°13.272 2°50.896 11.7 265 8.5 100940 88
2002-11-29 09:06:50 51°13.265 2°50.877 12.2 264 8.5 100940 88
2002-11-29 09:06:56 51°13.255 2°50.846 11.6 263 8.5 100940 88
2002-11-29 09:07:00 51°13.248 2°50.826 11.5 262 8.5 100940 88
2002-11-29 09:07:04 51°13.242 2°50.806 11 263 8.5 100940 88
2002-11-29 09:07:10 51°13.231 2°50.776 11.9 265 8.5 100940 88
2002-11-29 09:07:15 51°13.223 2°50.751 11.9 267 8.5 100940 88
2002-11-29 09:07:20 51°13.215 2°50.727 12 262 8.5 100940 88
2002-11-29 09:07:26 51°13.204 2°50.697 12.3 264 8.5 100940 88
2002-11-29 09:07:30 51°13.198 2°50.677 12.2 268 8.5 100950 88
2002-11-29 09:07:35 51°13.189 2°50.652 12.7 267 8.5 100950 88
2002-11-29 09:07:40 51°13.18 2°50.627 12.8 267 8.5 100940 88
2002-11-29 09:07:46 51°13.17 2°50.597 11.8 263 8.5 100940 88
2002-11-29 09:07:50 51°13.164 2°50.576 11.9 266 8.5 100950 88
2002-11-29 09:07:56 51°13.154 2°50.546 11.4 264 8.5 100950 88
2002-11-29 09:08:00 51°13.147 2°50.526 11.9 266 8.5 100940 88
2002-11-29 09:08:06 51°13.137 2°50.496 11.7 267 8.5 100940 88
2002-11-29 09:08:10 51°13.13 2°50.476 11.7 265 8.5 100940 88
2002-11-29 09:08:16 51°13.12 2°50.446 10.5 262 8.5 100940 88
2002-11-29 09:08:20 51°13.113 2°50.426 11.3 265 8.5 100950 88
2002-11-29 09:08:26 51°13.103 2°50.396 11.9 264 8.5 100950 88
2002-11-29 09:08:31 51°13.095 2°50.371 12.1 269 8.5 100940 88
2002-11-29 09:08:36 51°13.087 2°50.345 12 266 8.5 100940 88
2002-11-29 09:08:40 51°13.08 2°50.325 11.2 265 8.5 100940 88
2002-11-29 09:08:44 51°13.074 2°50.306 12.2 266 8.5 100940 88
2002-11-29 09:08:50 51°13.064 2°50.275 12.6 261 8.5 100940 88
2002-11-29 09:08:56 51°13.053 2°50.245 11.5 265 8.5 100940 88
2002-11-29 09:09:00 51°13.047 2°50.225 11.9 263 8.5 100940 88
2002-11-29 09:09:06 51°13.036 2°50.195 12.3 269 8.5 100940 88
2002-11-29 09:09:10 51°13.029 2°50.175 13.1 267 8.5 100940 88
2002-11-29 09:09:16 51°13.02 2°50.145 11.2 266 8.5 100940 88
2002-11-29 09:09:20 51°13.013 2°50.125 11.2 267 8.5 100930 88
2002-11-29 09:09:26 51°13.002 2°50.095 12 269 8.5 100930 88
2002-11-29 09:09:30 51°12.996 2°50.075 12.5 269 8.5 100930 88
2002-11-29 09:09:35 51°12.987 2°50.049 11.1 267 8.5 100930 88
2002-11-29 09:09:40 51°12.979 2°50.024 12.1 263 8.5 100930 88
2002-11-29 09:09:45 51°12.971 2°49.999 12.6 264 8.5 100930 88
2002-11-29 09:09:49 51°12.964 2°49.979 11.9 267 8.5 100940 88
2002-11-29 09:09:55 51°12.954 2°49.949 12 266 8.5 100940 88
2002-11-29 09:10:00 51°12.945 2°49.924 12.1 266 8.5 100930 88
2002-11-29 09:10:06 51°12.936 2°49.893 11.4 269 8.5 100930 88
2002-11-29 09:10:11 51°12.927 2°49.868 11.8 264 8.5 100940 88
2002-11-29 09:10:15 51°12.92 2°49.848 11.3 268 8.5 100940 88
2002-11-29 09:10:20 51°12.912 2°49.823 11.7 263 8.5 100940 88
2002-11-29 09:10:25 51°12.903 2°49.798 11.1 266 8.5 100940 88
2002-11-29 09:10:30 51°12.895 2°49.773 11.6 267 8.5 100940 88
2002-11-29 09:10:36 51°12.885 2°49.743 11.7 267 8.5 100940 88
2002-11-29 09:10:40 51°12.878 2°49.723 11.7 263 8.5 100940 88
2002-11-29 09:10:46 51°12.868 2°49.693 12.4 262 8.5 100940 88
2002-11-29 09:10:50 51°12.861 2°49.673 12.5 266 8.5 100940 88
2002-11-29 09:10:55 51°12.853 2°49.647 11.3 264 8.5 100940 88
2002-11-29 09:11:00 51°12.845 2°49.622 12.7 265 8.5 100940 88
2002-11-29 09:11:06 51°12.835 2°49.592 11.5 263 8.5 100940 88
2002-11-29 09:11:11 51°12.826 2°49.567 12.1 266 8.5 100940 88
2002-11-29 09:11:16 51°12.818 2°49.542 11.3 264 8.5 100940 88
2002-11-29 09:11:20 51°12.811 2°49.522 11.3 265 8.5 100950 88
2002-11-29 09:11:24 51°12.804 2°49.502 12.3 266 8.5 100950 88
2002-11-29 09:11:30 51°12.794 2°49.472 11.9 270 8.5 100940 88
2002-11-29 09:11:36 51°12.784 2°49.442 12 268 8.5 100940 88
2002-11-29 09:11:40 51°12.777 2°49.422 11.1 265 8.5 100940 88
2002-11-29 09:11:45 51°12.768 2°49.397 12.2 269 8.5 100940 88
2002-11-29 09:11:51 51°12.759 2°49.367 12 269 8.5 100940 88
2002-11-29 09:11:56 51°12.75 2°49.342 10.5 265 8.5 100940 88
2002-11-29 09:12:00 51°12.743 2°49.322 10.7 261 8.5 100940 88
2002-11-29 09:12:06 51°12.733 2°49.292 11 266 8.5 100940 88
2002-11-29 09:12:10 51°12.726 2°49.272 11.5 265 8.5 100940 88
2002-11-29 09:12:15 51°12.717 2°49.246 10.7 265 8.5 100940 88
2002-11-29 09:12:20 51°12.709 2°49.221 10.8 266 8.5 100940 88
2002-11-29 09:12:25 51°12.701 2°49.196 11.1 267 8.5 100940 88
2002-11-29 09:12:30 51°12.692 2°49.171 11.7 269 8.5 100940 88
2002-11-29 09:12:36 51°12.682 2°49.141 11.1 267 8.5 100940 88
2002-11-29 09:12:40 51°12.675 2°49.121 12.6 265 8.5 100940 88
2002-11-29 09:12:46 51°12.665 2°49.091 11.7 273 8.5 100940 88
2002-11-29 09:12:50 51°12.658 2°49.07 12.7 269 8.5 100940 88
2002-11-29 09:12:55 51°12.65 2°49.045 12.2 268 8.5 100940 88
2002-11-29 09:13:00 51°12.642 2°49.02 11.6 263 8.5 100940 88
2002-11-29 09:13:06 51°12.631 2°48.99 11.7 266 8.5 100940 88
2002-11-29 09:13:10 51°12.625 2°48.97 11.8 267 8.5 100940 88
2002-11-29 09:13:16 51°12.615 2°48.94 11.2 268 8.5 100940 88
2002-11-29 09:13:20 51°12.608 2°48.92 11 266 8.6 100940 88
2002-11-29 09:13:26 51°12.598 2°48.889 10.7 267 8.6 100940 88
2002-11-29 09:13:30 51°12.591 2°48.869 10.9 266 8.6 100940 88
2002-11-29 09:13:35 51°12.582 2°48.844 10.6 264 8.6 100940 88
2002-11-29 09:13:40 51°12.574 2°48.819 10.8 266 8.6 100940 87
2002-11-29 09:13:46 51°12.564 2°48.789 11.7 264 8.6 100940 87
2002-11-29 09:13:50 51°12.557 2°48.768 11.7 264 8.6 100940 88
2002-11-29 09:13:55 51°12.549 2°48.743 12.1 266 8.6 100940 88
2002-11-29 09:14:00 51°12.54 2°48.718 11.4 265 8.6 100940 88
2002-11-29 09:14:04 51°12.533 2°48.698 11.1 265 8.6 100940 88
2002-11-29 09:14:10 51°12.523 2°48.668 11.1 267 8.6 100940 88
2002-11-29 09:14:16 51°12.513 2°48.637 12 271 8.6 100940 88
2002-11-29 09:14:20 51°12.506 2°48.617 11.2 268 8.6 100940 87
2002-11-29 09:14:24 51°12.499 2°48.597 11 261 8.6 100940 87
2002-11-29 09:14:30 51°12.489 2°48.566 11.6 262 8.6 100940 87
2002-11-29 09:14:36 51°12.479 2°48.536 11.9 266 8.6 100940 87
2002-11-29 09:14:40 51°12.472 2°48.516 12.8 267 8.6 100940 87
2002-11-29 09:14:44 51°12.466 2°48.496 12.5 267 8.6 100940 87
2002-11-29 09:14:50 51°12.456 2°48.466 12.1 265 8.6 100940 87
2002-11-29 09:14:55 51°12.447 2°48.441 11.7 263 8.6 100940 87
2002-11-29 09:15:00 51°12.438 2°48.416 12 263 8.6 100940 87
2002-11-29 09:15:05 51°12.43 2°48.391 11.6 263 8.6 100940 87
2002-11-29 09:15:11 51°12.42 2°48.361 12.4 266 8.6 100940 87
2002-11-29 09:15:16 51°12.411 2°48.336 11.6 267 8.6 100940 87
2002-11-29 09:15:20 51°12.405 2°48.316 12.3 262 8.6 100940 87
2002-11-29 09:15:26 51°12.394 2°48.285 12.8 262 8.6 100940 87
2002-11-29 09:15:30 51°12.387 2°48.266 11.7 266 8.6 100940 87
2002-11-29 09:15:35 51°12.379 2°48.241 12.5 274 8.6 100940 87
2002-11-29 09:15:40 51°12.371 2°48.216 12.2 268 8.6 100950 87
2002-11-29 09:15:44 51°12.364 2°48.195 11.8 266 8.6 100950 87
2002-11-29 09:15:51 51°12.352 2°48.159 11.9 260 8.6 100940 87
2002-11-29 09:15:56 51°12.344 2°48.134 11.4 265 8.6 100940 87
2002-11-29 09:16:00 51°12.338 2°48.114 11.7 258 8.6 100940 87
2002-11-29 09:16:06 51°12.328 2°48.084 12.5 262 8.6 100940 87
2002-11-29 09:16:11 51°12.319 2°48.058 12.6 261 8.6 100950 87
2002-11-29 09:16:15 51°12.312 2°48.038 12.1 265 8.6 100950 87
2002-11-29 09:16:20 51°12.304 2°48.013 12.1 268 8.6 100950 87
2002-11-29 09:16:26 51°12.294 2°47.983 11.9 269 8.6 100950 87
2002-11-29 09:16:30 51°12.287 2°47.963 11.5 264 8.6 100950 87
2002-11-29 09:16:35 51°12.279 2°47.937 12.1 262 8.6 100950 87
2002-11-29 09:16:40 51°12.27 2°47.912 12.8 262 8.6 100940 87
2002-11-29 09:16:44 51°12.263 2°47.892 12.5 262 8.6 100940 87
2002-11-29 09:16:50 51°12.253 2°47.862 12.3 267 8.6 100950 87
2002-11-29 09:16:56 51°12.243 2°47.831 12.6 264 8.6 100950 87
2002-11-29 09:17:00 51°12.235 2°47.811 14 264 8.6 100940 87
2002-11-29 09:17:04 51°12.228 2°47.791 11.8 270 8.6 100940 87
2002-11-29 09:17:10 51°12.218 2°47.76 12.1 263 8.6 100940 87
2002-11-29 09:17:16 51°12.208 2°47.73 11.3 262 8.6 100940 87
2002-11-29 09:17:20 51°12.201 2°47.71 12.2 261 8.6 100950 87
2002-11-29 09:17:26 51°12.191 2°47.679 11.8 261 8.6 100950 87
2002-11-29 09:17:31 51°12.182 2°47.654 12.3 263 8.5 100940 87
2002-11-29 09:17:35 51°12.175 2°47.634 12.7 263 8.5 100940 87
2002-11-29 09:17:40 51°12.166 2°47.608 12.5 263 8.6 100950 87
2002-11-29 09:17:44 51°12.159 2°47.588 11.2 263 8.6 100950 87
2002-11-29 09:17:50 51°12.149 2°47.558 11.4 267 8.6 100950 87
2002-11-29 09:17:56 51°12.139 2°47.528 12 266 8.6 100950 87
2002-11-29 09:18:00 51°12.132 2°47.507 11.2 265 8.6 100950 87
2002-11-29 09:18:06 51°12.122 2°47.476 11.5 267 8.6 100950 87
2002-11-29 09:18:10 51°12.115 2°47.456 10.9 266 8.6 100940 87
2002-11-29 09:18:16 51°12.105 2°47.425 11.5 267 8.6 100940 87
2002-11-29 09:18:20 51°12.098 2°47.405 11.3 269 8.6 100950 87
2002-11-29 09:18:26 51°12.087 2°47.375 11.2 268 8.6 100950 87
2002-11-29 09:18:31 51°12.079 2°47.349 11.6 267 8.6 100950 87
2002-11-29 09:18:36 51°12.07 2°47.324 11.9 263 8.6 100950 87
2002-11-29 09:18:40 51°12.063 2°47.304 13.2 268 8.7 100950 87
2002-11-29 09:18:44 51°12.056 2°47.283 12.7 265 8.7 100950 87
2002-11-29 09:18:51 51°12.044 2°47.248 12.4 258 8.6 100950 87
2002-11-29 09:18:56 51°12.035 2°47.222 11.1 268 8.6 100950 87
2002-11-29 09:19:00 51°12.028 2°47.202 11.9 265 8.6 100950 87
2002-11-29 09:19:04 51°12.022 2°47.181 11.8 265 8.6 100950 87
2002-11-29 09:19:11 51°12.011 2°47.145 11.9 263 8.7 100940 87
2002-11-29 09:19:16 51°12.003 2°47.119 11.1 261 8.7 100940 87
2002-11-29 09:19:20 51°11.997 2°47.098 10.9 264 8.7 100950 87
2002-11-29 09:19:26 51°11.989 2°47.066 12.1 268 8.7 100950 87
2002-11-29 09:19:30 51°11.983 2°47.045 11.8 269 8.7 100950 87
2002-11-29 09:19:36 51°11.975 2°47.013 10.8 268 8.7 100950 87
2002-11-29 09:19:40 51°11.969 2°46.991 11.3 265 8.7 100950 87
2002-11-29 09:19:44 51°11.964 2°46.97 11.9 269 8.7 100950 87
2002-11-29 09:19:51 51°11.954 2°46.932 11.4 273 8.7 100950 87
2002-11-29 09:19:56 51°11.947 2°46.906 10.8 276 8.7 100950 87
2002-11-29 09:20:00 51°11.941 2°46.884 10.8 269 8.7 100950 87
2002-11-29 09:20:06 51°11.933 2°46.853 10.9 265 8.7 100950 87
2002-11-29 09:20:11 51°11.925 2°46.826 11 265 8.7 100950 87
2002-11-29 09:20:16 51°11.918 2°46.8 10.2 265 8.7 100950 87
2002-11-29 09:20:20 51°11.913 2°46.779 10.5 270 8.7 100950 87
2002-11-29 09:20:26 51°11.904 2°46.746 10.7 270 8.7 100950 87
2002-11-29 09:20:31 51°11.897 2°46.719 11.2 270 8.6 100950 87
2002-11-29 09:20:36 51°11.89 2°46.693 11.2 269 8.6 100950 87
2002-11-29 09:20:40 51°11.885 2°46.671 11.4 269 8.6 100950 87
2002-11-29 09:20:46 51°11.876 2°46.639 11.8 261 8.6 100950 87
2002-11-29 09:20:50 51°11.871 2°46.618 12.5 267 8.6 100950 87
2002-11-29 09:20:56 51°11.862 2°46.586 11 267 8.6 100950 87
2002-11-29 09:21:00 51°11.856 2°46.565 11.5 265 8.7 100950 87
2002-11-29 09:21:04 51°11.851 2°46.544 11.3 269 8.7 100950 87
2002-11-29 09:21:11 51°11.84 2°46.507 10.2 264 8.7 100950 87
2002-11-29 09:21:15 51°11.835 2°46.486 12 266 8.7 100950 87
2002-11-29 09:21:20 51°11.827 2°46.46 11.7 271 8.6 100950 87
2002-11-29 09:21:26 51°11.819 2°46.428 11 271 8.6 100950 87
2002-11-29 09:21:31 51°11.812 2°46.401 11.5 268 8.6 100940 87
2002-11-29 09:21:36 51°11.805 2°46.374 11.4 274 8.6 100940 87
2002-11-29 09:21:40 51°11.8 2°46.353 11.2 272 8.6 100950 87
2002-11-29 09:21:46 51°11.791 2°46.321 11 273 8.6 100950 87
2002-11-29 09:21:51 51°11.784 2°46.295 10.4 274 8.6 100950 87
2002-11-29 09:21:55 51°11.779 2°46.273 10.7 271 8.6 100950 87
2002-11-29 09:22:00 51°11.772 2°46.247 11 269 8.6 100950 87
2002-11-29 09:22:06 51°11.763 2°46.215 11.5 265 8.6 100950 87
2002-11-29 09:22:10 51°11.757 2°46.194 12 267 8.6 100950 87
2002-11-29 09:22:16 51°11.749 2°46.162 10.8 266 8.6 100950 87
2002-11-29 09:22:20 51°11.743 2°46.14 10.8 265 8.6 100950 87
2002-11-29 09:22:24 51°11.737 2°46.119 10.1 266 8.6 100950 87
2002-11-29 09:22:31 51°11.726 2°46.082 11.1 267 8.6 100950 87
2002-11-29 09:22:36 51°11.719 2°46.056 11.2 266 8.6 100950 87
2002-11-29 09:22:40 51°11.713 2°46.035 10.8 265 8.6 100950 87
2002-11-29 09:22:44 51°11.707 2°46.014 11.4 268 8.6 100950 87
2002-11-29 09:22:50 51°11.699 2°45.982 11.4 271 8.6 100950 87
2002-11-29 09:22:56 51°11.69 2°45.95 11.5 269 8.6 100950 87
2002-11-29 09:23:00 51°11.685 2°45.928 10.9 265 8.6 100950 87
2002-11-29 09:23:06 51°11.676 2°45.897 11.6 270 8.6 100950 87
2002-11-29 09:23:10 51°11.671 2°45.875 10.7 267 8.6 100950 87
2002-11-29 09:23:15 51°11.663 2°45.849 11.7 266 8.6 100950 87
2002-11-29 09:23:20 51°11.656 2°45.822 12 269 8.6 100950 87
2002-11-29 09:23:24 51°11.65 2°45.801 12.5 267 8.6 100950 87
2002-11-29 09:23:31 51°11.64 2°45.763 12.8 269 8.6 100950 87
2002-11-29 09:23:35 51°11.635 2°45.742 11.7 267 8.6 100950 87
2002-11-29 09:23:40 51°11.628 2°45.715 11.5 270 8.6 100950 87
2002-11-29 09:23:46 51°11.619 2°45.683 12.1 267 8.6 100950 87
2002-11-29 09:23:50 51°11.614 2°45.661 11.4 270 8.6 100950 87
2002-11-29 09:23:55 51°11.607 2°45.634 11.5 266 8.6 100950 87
2002-11-29 09:24:00 51°11.6 2°45.608 11 266 8.7 100940 87
2002-11-29 09:24:06 51°11.591 2°45.576 11.1 265 8.7 100940 87
2002-11-29 09:24:10 51°11.585 2°45.555 11.3 269 8.6 100950 87
2002-11-29 09:24:15 51°11.578 2°45.528 12 266 8.6 100950 87
2002-11-29 09:24:20 51°11.571 2°45.501 11.4 267 8.6 100960 87
2002-11-29 09:24:26 51°11.562 2°45.47 12.3 265 8.6 100960 87
2002-11-29 09:24:30 51°11.557 2°45.448 12.1 267 8.7 100950 87
2002-11-29 09:24:35 51°11.549 2°45.421 10.9 271 8.7 100950 87
2002-11-29 09:24:40 51°11.542 2°45.395 10.9 271 8.7 100950 87
2002-11-29 09:24:46 51°11.534 2°45.363 10.3 270 8.7 100950 87
2002-11-29 09:24:50 51°11.528 2°45.342 11.1 270 8.7 100950 87
2002-11-29 09:24:56 51°11.519 2°45.31 11.4 268 8.7 100950 87
2002-11-29 09:25:00 51°11.513 2°45.289 11.2 266 8.7 100950 87
2002-11-29 09:25:04 51°11.508 2°45.268 4.4 265 8.7 100950 87
2002-11-29 09:25:11 51°11.498 2°45.231 10.9 265 8.7 100950 87
2002-11-29 09:25:16 51°11.491 2°45.204 11.8 268 8.7 100950 87
2002-11-29 09:25:20 51°11.485 2°45.183 12.6 263 8.7 100950 87
2002-11-29 09:25:26 51°11.477 2°45.151 11.4 271 8.7 100950 87
2002-11-29 09:25:30 51°11.471 2°45.13 12.1 263 8.7 100960 87
2002-11-29 09:25:36 51°11.463 2°45.098 12.5 267 8.7 100960 87
2002-11-29 09:25:40 51°11.457 2°45.077 11.9 264 8.7 100950 87
2002-11-29 09:25:45 51°11.45 2°45.051 10.5 267 8.7 100950 87
2002-11-29 09:25:50 51°11.442 2°45.024 10.7 265 8.7 100950 87
2002-11-29 09:25:56 51°11.433 2°44.993 12 266 8.7 100950 87
2002-11-29 09:26:00 51°11.427 2°44.972 11.5 272 8.7 100950 87
2002-11-29 09:26:06 51°11.418 2°44.94 12.3 269 8.7 100950 87
2002-11-29 09:26:10 51°11.412 2°44.919 11.4 262 8.7 100950 87
2002-11-29 09:26:16 51°11.404 2°44.887 11.8 263 8.7 100950 87
2002-11-29 09:26:20 51°11.398 2°44.866 11.6 262 8.7 100950 87
2002-11-29 09:26:26 51°11.389 2°44.834 11.4 261 8.7 100950 87
2002-11-29 09:26:30 51°11.384 2°44.813 12 267 8.7 100950 87
2002-11-29 09:26:36 51°11.375 2°44.78 12.5 262 8.7 100950 87
2002-11-29 09:26:40 51°11.37 2°44.759 12.7 263 8.7 100950 87
2002-11-29 09:26:46 51°11.361 2°44.727 12.8 265 8.7 100950 87
2002-11-29 09:26:50 51°11.355 2°44.706 13.1 266 8.7 100950 87
2002-11-29 09:26:56 51°11.347 2°44.674 12.3 265 8.7 100950 87
2002-11-29 09:26:59 51°11.343 2°44.658 12.2 267 8.7 100960 87
2002-11-29 09:27:06 51°11.333 2°44.621 13.4 264 8.7 100960 87
2002-11-29 09:27:11 51°11.326 2°44.594 12.2 266 8.7 100950 87
2002-11-29 09:27:15 51°11.32 2°44.573 12.4 270 8.7 100950 87
2002-11-29 09:27:20 51°11.313 2°44.546 12.9 268 8.7 100950 87
2002-11-29 09:27:26 51°11.304 2°44.514 12.3 270 8.7 100950 87
2002-11-29 09:27:31 51°11.297 2°44.487 11.9 268 8.7 100950 87
2002-11-29 09:27:36 51°11.29 2°44.461 12.6 272 8.7 100950 87
2002-11-29 09:27:40 51°11.283 2°44.439 12.5 272 8.7 100950 87
2002-11-29 09:27:44 51°11.278 2°44.418 11.8 271 8.7 100950 87
2002-11-29 09:27:50 51°11.269 2°44.385 12.5 269 8.7 100950 87
2002-11-29 09:27:55 51°11.262 2°44.359 12.2 267 8.7 100950 87
2002-11-29 09:28:00 51°11.255 2°44.332 13.2 266 8.7 100950 87
2002-11-29 09:28:04 51°11.249 2°44.31 13.4 267 8.7 100950 87
2002-11-29 09:28:10 51°11.241 2°44.278 12.9 273 8.7 100950 87
2002-11-29 09:28:16 51°11.232 2°44.246 13.2 261 8.7 100950 87
2002-11-29 09:28:20 51°11.226 2°44.224 13.1 265 8.7 100950 87
2002-11-29 09:28:25 51°11.219 2°44.198 12.7 270 8.7 100950 87
2002-11-29 09:28:30 51°11.212 2°44.171 12 267 8.7 100940 87
2002-11-29 09:28:35 51°11.205 2°44.144 12 264 8.7 100940 87
2002-11-29 09:28:40 51°11.198 2°44.117 12.2 271 8.7 100940 87
2002-11-29 09:28:46 51°11.189 2°44.085 11.8 270 8.7 100940 87
2002-11-29 09:28:50 51°11.184 2°44.063 11.8 265 8.7 100950 87
2002-11-29 09:28:55 51°11.176 2°44.037 12.9 267 8.7 100950 87
2002-11-29 09:29:00 51°11.169 2°44.01 12.2 269 8.7 100940 87
2002-11-29 09:29:06 51°11.16 2°43.978 12.5 270 8.7 100940 87
2002-11-29 09:29:10 51°11.154 2°43.956 12.7 268 8.7 100950 87
2002-11-29 09:29:16 51°11.146 2°43.924 11.9 266 8.7 100950 87
2002-11-29 09:29:20 51°11.14 2°43.903 11.8 265 8.7 100950 87
2002-11-29 09:29:26 51°11.132 2°43.87 12.5 269 8.7 100950 87
2002-11-29 09:29:30 51°11.126 2°43.849 13.1 272 8.7 100950 87
2002-11-29 09:29:35 51°11.119 2°43.822 12 273 8.7 100950 87
2002-11-29 09:29:40 51°11.112 2°43.795 11.7 269 8.7 100950 87
2002-11-29 09:29:46 51°11.104 2°43.763 12.2 269 8.7 100950 87
2002-11-29 09:29:50 51°11.098 2°43.741 12.1 272 8.7 100940 87
2002-11-29 09:29:56 51°11.09 2°43.709 11 271 8.7 100940 87
2002-11-29 09:30:00 51°11.085 2°43.687 11.1 272 8.7 100940 87
2002-11-29 09:30:06 51°11.076 2°43.655 11.8 268 8.7 100940 87
2002-11-29 09:30:10 51°11.071 2°43.633 12.2 267 8.7 100940 87
2002-11-29 09:30:15 51°11.064 2°43.606 12.2 268 8.7 100940 87
2002-11-29 09:30:20 51°11.057 2°43.579 12.6 270 8.7 100940 87
2002-11-29 09:30:24 51°11.051 2°43.558 12.5 272 8.7 100940 87
2002-11-29 09:30:30 51°11.043 2°43.525 11.8 274 8.7 100950 87
2002-11-29 09:30:36 51°11.035 2°43.493 11.9 275 8.7 100950 87
2002-11-29 09:30:40 51°11.03 2°43.471 12.2 276 8.7 100940 87
2002-11-29 09:30:46 51°11.022 2°43.438 11.7 272 8.7 100940 87
2002-11-29 09:30:50 51°11.017 2°43.417 12.3 270 8.7 100940 87
2002-11-29 09:30:55 51°11.01 2°43.389 12.5 271 8.7 100940 87
2002-11-29 09:31:00 51°11.004 2°43.362 12.1 273 8.7 100940 87
2002-11-29 09:31:06 51°10.996 2°43.329 11.8 273 8.7 100940 87
2002-11-29 09:31:11 51°10.989 2°43.302 10.5 270 8.7 100940 87
2002-11-29 09:31:16 51°10.982 2°43.275 11.1 274 8.7 100940 87
2002-11-29 09:31:20 51°10.977 2°43.253 10.7 270 8.7 100940 87
2002-11-29 09:31:26 51°10.969 2°43.22 10.9 272 8.7 100940 87
2002-11-29 09:31:30 51°10.963 2°43.198 11.3 272 8.7 100940 87
2002-11-29 09:31:35 51°10.957 2°43.171 11.2 270 8.7 100940 87
2002-11-29 09:31:40 51°10.95 2°43.144 11.5 272 8.7 100950 87
2002-11-29 09:31:46 51°10.942 2°43.111 11.3 271 8.7 100950 87
2002-11-29 09:31:51 51°10.936 2°43.084 11.9 270 8.7 100950 87
2002-11-29 09:31:56 51°10.929 2°43.056 11.5 272 8.7 100950 87
2002-11-29 09:32:00 51°10.924 2°43.034 10.1 273 8.7 100950 87
2002-11-29 09:32:06 51°10.916 2°43.002 11.2 275 8.7 100950 87
2002-11-29 09:32:10 51°10.911 2°42.98 10.7 269 8.7 100950 87
2002-11-29 09:32:15 51°10.904 2°42.953 11.9 273 8.7 100950 87
2002-11-29 09:32:20 51°10.897 2°42.925 10.7 271 8.7 100950 87
2002-11-29 09:32:25 51°10.891 2°42.898 10.7 268 8.7 100950 87
2002-11-29 09:32:30 51°10.884 2°42.871 11.6 268 8.7 100950 87
2002-11-29 09:32:35 51°10.878 2°42.843 11.8 269 8.7 100950 87
2002-11-29 09:32:40 51°10.871 2°42.816 11.7 270 8.7 100950 87
2002-11-29 09:32:46 51°10.863 2°42.783 11.8 269 8.7 100950 87
2002-11-29 09:32:50 51°10.858 2°42.762 10.5 273 8.7 100950 87
2002-11-29 09:32:56 51°10.85 2°42.729 10.5 272 8.7 100950 87
2002-11-29 09:33:00 51°10.845 2°42.707 11.5 276 8.7 100950 87
2002-11-29 09:33:06 51°10.837 2°42.675 10.5 276 8.7 100950 87
2002-11-29 09:33:10 51°10.832 2°42.653 12.6 268 8.7 100950 87
2002-11-29 09:33:15 51°10.825 2°42.626 10.7 269 8.7 100950 87
2002-11-29 09:33:20 51°10.818 2°42.598 10.4 270 8.7 100950 87
2002-11-29 09:33:26 51°10.81 2°42.566 11.5 271 8.7 100950 87
2002-11-29 09:33:30 51°10.805 2°42.544 11.5 271 8.7 100950 87
2002-11-29 09:33:36 51°10.797 2°42.511 12.4 268 8.7 100950 87
2002-11-29 09:33:40 51°10.792 2°42.489 12.3 275 8.7 100950 87
2002-11-29 09:33:45 51°10.785 2°42.462 12.3 278 8.7 100950 87
2002-11-29 09:33:51 51°10.777 2°42.429 13.1 275 8.7 100950 87
2002-11-29 09:33:56 51°10.77 2°42.402 11.5 272 8.7 100950 87
2002-11-29 09:34:00 51°10.765 2°42.38 11.5 276 8.7 100940 87
2002-11-29 09:34:04 51°10.76 2°42.358 10.9 277 8.7 100940 87
2002-11-29 09:34:11 51°10.751 2°42.32 10.6 275 8.7 100940 87
2002-11-29 09:34:15 51°10.746 2°42.298 11.3 272 8.7 100940 87
2002-11-29 09:34:20 51°10.739 2°42.27 12 272 8.7 100940 87
2002-11-29 09:34:26 51°10.731 2°42.238 11.8 271 8.7 100940 87
2002-11-29 09:34:30 51°10.726 2°42.216 12 269 8.8 100940 87
2002-11-29 09:34:36 51°10.718 2°42.183 11.8 277 8.8 100940 87
2002-11-29 09:34:40 51°10.713 2°42.161 11.7 271 8.7 100940 87
2002-11-29 09:34:46 51°10.704 2°42.128 10.1 268 8.7 100940 87
2002-11-29 09:34:50 51°10.699 2°42.106 10.8 274 8.7 100950 87
2002-11-29 09:34:55 51°10.692 2°42.079 11.5 271 8.7 100950 87
2002-11-29 09:35:00 51°10.686 2°42.052 11.2 268 8.8 100950 87
2002-11-29 09:35:06 51°10.678 2°42.019 11.5 272 8.8 100950 87
2002-11-29 09:35:10 51°10.673 2°41.997 11.9 272 8.8 100950 87
2002-11-29 09:35:16 51°10.666 2°41.964 11.1 272 8.8 100950 87
2002-11-29 09:35:20 51°10.661 2°41.942 10.5 270 8.8 100950 87
2002-11-29 09:35:24 51°10.656 2°41.92 11.4 273 8.8 100950 87
2002-11-29 09:35:31 51°10.647 2°41.881 12.6 273 8.8 100950 87
2002-11-29 09:35:36 51°10.64 2°41.854 12.1 275 8.8 100950 87
2002-11-29 09:35:40 51°10.635 2°41.832 12.2 269 8.8 100950 87
2002-11-29 09:35:46 51°10.627 2°41.8 11.2 272 8.8 100950 87
2002-11-29 09:35:50 51°10.621 2°41.778 11.5 273 8.8 100950 87
2002-11-29 09:35:56 51°10.613 2°41.746 11.5 271 8.8 100950 87
2002-11-29 09:36:00 51°10.608 2°41.725 11.9 273 8.8 100940 87
2002-11-29 09:36:06 51°10.6 2°41.692 12 268 8.8 100940 87
2002-11-29 09:36:10 51°10.595 2°41.671 11.2 272 8.8 100950 87
2002-11-29 09:36:16 51°10.587 2°41.638 12.3 268 8.8 100950 87
2002-11-29 09:36:20 51°10.581 2°41.617 12.3 268 8.8 100950 87
2002-11-29 09:36:24 51°10.576 2°41.595 11.1 272 8.8 100950 87
2002-11-29 09:36:30 51°10.568 2°41.563 11.2 269 8.8 100950 87
2002-11-29 09:36:36 51°10.56 2°41.53 11.9 269 8.8 100950 87
2002-11-29 09:36:40 51°10.555 2°41.509 12.1 268 8.8 100950 87
2002-11-29 09:36:46 51°10.547 2°41.476 11.4 271 8.8 100950 87
2002-11-29 09:36:50 51°10.542 2°41.455 10.9 270 8.8 100950 87
2002-11-29 09:36:55 51°10.536 2°41.428 10.4 270 8.8 100950 87
2002-11-29 09:37:00 51°10.53 2°41.401 12.1 270 8.8 100960 87
2002-11-29 09:37:06 51°10.522 2°41.368 12 273 8.8 100960 87
2002-11-29 09:37:10 51°10.517 2°41.346 11 271 8.8 100960 87
2002-11-29 09:37:16 51°10.509 2°41.314 11.2 275 8.8 100960 87
2002-11-29 09:37:20 51°10.504 2°41.292 11.2 273 8.8 100960 87
2002-11-29 09:37:26 51°10.497 2°41.259 11.5 273 8.8 100960 87
2002-11-29 09:37:31 51°10.491 2°41.231 10.4 272 8.8 100950 87
2002-11-29 09:37:36 51°10.484 2°41.204 11.5 272 8.8 100950 87
2002-11-29 09:37:40 51°10.479 2°41.182 11.2 269 8.8 100960 87
2002-11-29 09:37:46 51°10.471 2°41.15 11.6 274 8.8 100960 87
2002-11-29 09:37:50 51°10.466 2°41.128 10.9 270 8.8 100960 87
2002-11-29 09:37:56 51°10.458 2°41.095 12 276 8.8 100960 87
2002-11-29 09:38:00 51°10.453 2°41.073 11.6 273 8.8 100960 87
2002-11-29 09:38:04 51°10.448 2°41.052 11 272 8.8 100960 87
2002-11-29 09:38:10 51°10.44 2°41.019 11.7 269 8.8 100960 87
2002-11-29 09:38:15 51°10.434 2°40.992 11.7 271 8.8 100960 87
2002-11-29 09:38:20 51°10.427 2°40.964 11.5 268 8.8 100960 87
2002-11-29 09:38:26 51°10.419 2°40.932 10.6 273 8.8 100960 87
2002-11-29 09:38:30 51°10.414 2°40.91 10.6 269 8.8 100960 87
2002-11-29 09:38:35 51°10.408 2°40.882 11.8 271 8.8 100960 87
2002-11-29 09:38:40 51°10.401 2°40.855 11 270 8.8 100960 87
2002-11-29 09:38:46 51°10.393 2°40.823 10.9 269 8.8 100960 87
2002-11-29 09:38:51 51°10.387 2°40.796 11.4 271 8.7 100950 87
2002-11-29 09:38:56 51°10.38 2°40.768 11.1 271 8.7 100950 87
2002-11-29 09:39:00 51°10.375 2°40.746 11.3 276 8.7 100960 87
2002-11-29 09:39:06 51°10.368 2°40.713 10.7 273 8.7 100960 87
2002-11-29 09:39:11 51°10.362 2°40.685 11.9 273 8.7 100960 87
2002-11-29 09:39:16 51°10.355 2°40.658 10.8 275 8.7 100960 87
2002-11-29 09:39:20 51°10.35 2°40.636 11.8 268 8.7 100960 87
2002-11-29 09:39:26 51°10.343 2°40.603 11 272 8.7 100960 87
2002-11-29 09:39:30 51°10.337 2°40.582 11.8 269 8.7 100960 87
2002-11-29 09:39:35 51°10.331 2°40.554 10.9 274 8.7 100960 87
2002-11-29 09:39:40 51°10.324 2°40.527 10.4 271 8.7 100960 87
2002-11-29 09:39:46 51°10.317 2°40.494 11.1 270 8.7 100960 87
2002-11-29 09:39:51 51°10.31 2°40.467 11.2 272 8.7 100960 87
2002-11-29 09:39:56 51°10.304 2°40.44 10.3 271 8.7 100960 87
2002-11-29 09:40:00 51°10.298 2°40.418 10.5 273 8.7 100960 87
2002-11-29 09:40:06 51°10.291 2°40.385 10.2 271 8.7 100960 87
2002-11-29 09:40:10 51°10.286 2°40.363 10.7 270 8.7 100960 87
2002-11-29 09:40:16 51°10.278 2°40.33 11.1 278 8.7 100960 87
2002-11-29 09:40:19 51°10.274 2°40.314 10.8 276 8.7 100960 87
2002-11-29 09:40:26 51°10.265 2°40.275 11.1 275 8.7 100960 87
2002-11-29 09:40:31 51°10.258 2°40.248 10.3 270 8.7 100960 87
2002-11-29 09:40:35 51°10.253 2°40.226 9.9 268 8.7 100960 87
2002-11-29 09:40:40 51°10.247 2°40.199 10.7 269 8.7 100960 87
2002-11-29 09:40:46 51°10.239 2°40.166 11.1 275 8.7 100960 87
2002-11-29 09:40:50 51°10.234 2°40.144 10.9 271 8.7 100960 87
2002-11-29 09:40:55 51°10.228 2°40.117 11.2 270 8.7 100960 87
2002-11-29 09:41:00 51°10.222 2°40.088 11.8 271 8.7 100960 87
2002-11-29 09:41:06 51°10.214 2°40.055 11.5 266 8.7 100960 87
2002-11-29 09:41:11 51°10.208 2°40.027 11.1 273 8.7 100960 87
2002-11-29 09:41:15 51°10.203 2°40.005 11.9 268 8.7 100960 87
2002-11-29 09:41:20 51°10.196 2°39.977 11.6 269 8.7 100950 87
2002-11-29 09:41:26 51°10.188 2°39.944 11.8 274 8.7 100950 87
2002-11-29 09:41:30 51°10.184 2°39.922 10.7 275 8.7 100960 87
2002-11-29 09:41:36 51°10.176 2°39.889 12.3 269 8.7 100960 87
2002-11-29 09:41:40 51°10.171 2°39.867 12.1 269 8.8 100960 87
2002-11-29 09:41:45 51°10.165 2°39.839 11.9 272 8.8 100960 87
2002-11-29 09:41:50 51°10.158 2°39.811 12 267 8.8 100950 87
2002-11-29 09:41:55 51°10.152 2°39.784 11.3 265 8.8 100950 87
2002-11-29 09:42:00 51°10.145 2°39.757 11.8 271 8.8 100960 87
2002-11-29 09:42:04 51°10.139 2°39.735 11.4 269 8.8 100960 87
2002-11-29 09:42:11 51°10.13 2°39.696 12.7 273 8.8 100950 87
2002-11-29 09:42:16 51°10.124 2°39.669 12.7 272 8.8 100950 87
2002-11-29 09:42:19 51°10.121 2°39.653 11.8 271 8.8 100960 87
2002-11-29 09:42:26 51°10.112 2°39.615 12.8 276 8.8 100960 87
2002-11-29 09:42:30 51°10.107 2°39.593 11.6 273 8.8 100960 87
2002-11-29 09:42:35 51°10.1 2°39.565 11 275 8.8 100960 87
2002-11-29 09:42:40 51°10.093 2°39.537 10.1 268 8.8 100950 87
2002-11-29 09:42:46 51°10.085 2°39.504 11 274 8.8 100950 87
2002-11-29 09:42:50 51°10.08 2°39.482 10.4 273 8.8 100960 87
2002-11-29 09:42:55 51°10.073 2°39.454 11.1 270 8.8 100960 87
2002-11-29 09:43:00 51°10.066 2°39.427 11.5 270 8.8 100960 87
2002-11-29 09:43:06 51°10.059 2°39.394 11.4 274 8.8 100960 87
2002-11-29 09:43:10 51°10.054 2°39.372 12.6 272 8.8 100960 87
2002-11-29 09:43:15 51°10.047 2°39.345 11.9 273 8.8 100960 87
2002-11-29 09:43:20 51°10.039 2°39.318 11.8 273 8.8 100970 87
2002-11-29 09:43:26 51°10.028 2°39.288 11.8 268 8.8 100970 87
2002-11-29 09:43:30 51°10.021 2°39.268 12.7 270 8.8 100960 87
2002-11-29 09:43:36 51°10.009 2°39.238 12.1 268 8.8 100960 87
2002-11-29 09:43:40 51°10.002 2°39.218 12.4 269 8.8 100960 87
2002-11-29 09:43:46 51°9.99 2°39.188 10.8 267 8.8 100960 87
2002-11-29 09:43:50 51°9.983 2°39.168 11.9 266 8.8 100950 87
2002-11-29 09:43:56 51°9.971 2°39.138 13.4 267 8.8 100950 87
2002-11-29 09:44:00 51°9.964 2°39.117 13.5 268 8.8 100960 87
2002-11-29 09:44:06 51°9.954 2°39.086 12.6 270 8.8 100960 87
2002-11-29 09:44:10 51°9.946 2°39.065 12.9 273 8.8 100960 87
2002-11-29 09:44:16 51°9.936 2°39.034 11.7 267 8.8 100960 87
2002-11-29 09:44:20 51°9.93 2°39.012 12.2 272 8.8 100960 87
2002-11-29 09:44:26 51°9.921 2°38.98 12.3 273 8.8 100960 87
2002-11-29 09:44:30 51°9.915 2°38.959 12.1 270 8.8 100950 87
2002-11-29 09:44:36 51°9.906 2°38.927 12.1 271 8.8 100950 87
2002-11-29 09:44:40 51°9.9 2°38.905 11.3 266 8.8 100960 87
2002-11-29 09:44:44 51°9.894 2°38.883 11.2 269 8.8 100960 87
2002-11-29 09:44:51 51°9.885 2°38.845 10.9 267 8.8 100960 87
2002-11-29 09:44:55 51°9.879 2°38.823 10.2 269 8.8 100960 87
2002-11-29 09:45:00 51°9.873 2°38.796 11.2 273 8.8 100960 87
2002-11-29 09:45:06 51°9.864 2°38.763 10.4 270 8.8 100960 87
2002-11-29 09:45:11 51°9.858 2°38.735 11.1 272 8.8 100960 87
2002-11-29 09:45:15 51°9.852 2°38.713 11.4 269 8.8 100960 87
2002-11-29 09:45:20 51°9.846 2°38.686 11.5 270 8.8 100970 87
2002-11-29 09:45:24 51°9.84 2°38.664 11.2 271 8.8 100970 87
2002-11-29 09:45:30 51°9.832 2°38.631 11.3 273 8.8 100960 87
2002-11-29 09:45:36 51°9.824 2°38.598 11.7 274 8.8 100960 87
2002-11-29 09:45:40 51°9.818 2°38.576 11.1 268 8.8 100960 87
2002-11-29 09:45:46 51°9.81 2°38.544 10.8 264 8.8 100960 87
2002-11-29 09:45:51 51°9.803 2°38.517 11.3 270 8.8 100960 87
2002-11-29 09:45:56 51°9.796 2°38.489 11.1 270 8.8 100960 87
2002-11-29 09:46:00 51°9.791 2°38.467 11.1 268 8.8 100970 87
2002-11-29 09:46:04 51°9.785 2°38.445 12.1 264 8.8 100970 87
2002-11-29 09:46:10 51°9.777 2°38.412 11.5 267 8.8 100960 87
2002-11-29 09:46:16 51°9.769 2°38.38 12 268 8.8 100960 87
2002-11-29 09:46:20 51°9.764 2°38.358 11.7 271 8.8 100960 87
2002-11-29 09:46:26 51°9.756 2°38.325 11.4 269 8.8 100960 87
2002-11-29 09:46:30 51°9.75 2°38.303 11.4 271 8.8 100960 87
2002-11-29 09:46:35 51°9.744 2°38.276 11 265 8.8 100960 87
2002-11-29 09:46:41 51°9.736 2°38.243 11.7 267 8.8 100960 87
2002-11-29 09:46:46 51°9.729 2°38.216 12.5 266 8.8 100960 87
2002-11-29 09:46:50 51°9.723 2°38.194 13.7 271 8.8 100960 87
2002-11-29 09:46:55 51°9.717 2°38.166 12.3 271 8.8 100960 87
2002-11-29 09:47:00 51°9.71 2°38.139 12.7 272 8.9 100960 87
2002-11-29 09:47:06 51°9.702 2°38.106 11.6 266 8.9 100960 87
2002-11-29 09:47:10 51°9.698 2°38.084 11.5 272 8.9 100960 87
2002-11-29 09:47:16 51°9.69 2°38.051 11.4 269 8.9 100960 87
2002-11-29 09:47:20 51°9.684 2°38.029 12.4 266 8.9 100950 87
2002-11-29 09:47:24 51°9.679 2°38.007 11.6 271 8.9 100950 87
2002-11-29 09:47:30 51°9.672 2°37.974 11.4 270 8.9 100960 87
2002-11-29 09:47:35 51°9.666 2°37.946 12.2 270 8.9 100960 87
2002-11-29 09:47:40 51°9.66 2°37.918 11.9 272 8.9 100960 87
2002-11-29 09:47:46 51°9.653 2°37.885 12.1 270 8.9 100960 87
2002-11-29 09:47:50 51°9.648 2°37.862 12.2 269 8.9 100960 87
2002-11-29 09:47:55 51°9.642 2°37.835 12.8 269 8.9 100960 87
2002-11-29 09:48:00 51°9.636 2°37.807 12.5 270 8.9 100960 87
2002-11-29 09:48:06 51°9.628 2°37.774 12.1 272 8.9 100960 87
2002-11-29 09:48:11 51°9.622 2°37.746 12.1 273 8.9 100960 87
2002-11-29 09:48:16 51°9.616 2°37.719 11.3 271 8.9 100960 87
2002-11-29 09:48:20 51°9.611 2°37.696 11.4 265 8.9 100960 87
2002-11-29 09:48:26 51°9.604 2°37.663 12.9 264 8.9 100960 87
2002-11-29 09:48:30 51°9.599 2°37.641 12.3 266 8.9 100950 87
2002-11-29 09:48:36 51°9.591 2°37.608 13.3 267 8.9 100950 87
2002-11-29 09:48:40 51°9.586 2°37.586 12.3 270 8.9 100960 87
2002-11-29 09:48:46 51°9.579 2°37.553 12.4 272 8.9 100960 87
2002-11-29 09:48:50 51°9.574 2°37.531 12.1 274 9 100950 87
2002-11-29 09:48:56 51°9.567 2°37.497 13.7 270 9 100950 87
2002-11-29 09:49:00 51°9.562 2°37.475 13.6 272 9 100950 86
2002-11-29 09:49:06 51°9.554 2°37.442 14.2 270 9 100950 86
2002-11-29 09:49:11 51°9.548 2°37.414 13.4 268 9 100950 87
2002-11-29 09:49:16 51°9.542 2°37.386 14.1 274 9 100950 87
2002-11-29 09:49:20 51°9.537 2°37.364 13.1 276 9 100950 87
2002-11-29 09:49:25 51°9.531 2°37.337 13 276 9 100950 87
2002-11-29 09:49:30 51°9.525 2°37.31 12.3 271 9 100950 86
2002-11-29 09:49:36 51°9.518 2°37.277 12 271 9 100950 86
2002-11-29 09:49:40 51°9.513 2°37.254 12.2 268 9 100950 86
2002-11-29 09:49:46 51°9.505 2°37.221 11.9 268 9 100950 86
2002-11-29 09:49:50 51°9.5 2°37.199 12.5 270 9 100960 87
2002-11-29 09:49:56 51°9.494 2°37.166 11.8 273 9 100960 87
2002-11-29 09:50:00 51°9.489 2°37.143 12.1 271 9 100960 87
2002-11-29 09:50:04 51°9.484 2°37.121 11.6 268 9 100960 87
2002-11-29 09:50:11 51°9.475 2°37.082 11.5 269 9.1 100950 87
2002-11-29 09:50:15 51°9.47 2°37.06 12.3 268 9.1 100950 87
2002-11-29 09:50:20 51°9.464 2°37.033 11.8 269 9.1 100960 87
2002-11-29 09:50:26 51°9.456 2°36.999 12.6 267 9.1 100960 87
2002-11-29 09:50:31 51°9.45 2°36.972 13.3 269 9.1 100950 87
2002-11-29 09:50:36 51°9.444 2°36.944 13.1 272 9.1 100950 87
2002-11-29 09:50:40 51°9.44 2°36.921 12.1 275 9.1 100960 87
2002-11-29 09:50:46 51°9.433 2°36.888 12.8 276 9.1 100960 87
2002-11-29 09:50:51 51°9.427 2°36.861 12.3 271 9.1 100950 87
2002-11-29 09:50:56 51°9.421 2°36.835 12.4 271 9.1 100950 87
2002-11-29 09:51:00 51°9.417 2°36.815 13 271 9.1 100950 86
2002-11-29 09:51:04 51°9.414 2°36.797 11.3 273 9.1 100950 86
2002-11-29 09:51:11 51°9.407 2°36.768 11.1 279 9.1 100950 86
2002-11-29 09:51:15 51°9.404 2°36.752 10.2 270 9.1 100950 86
2002-11-29 09:51:20 51°9.4 2°36.734 10.1 270 9.1 100950 86
2002-11-29 09:51:26 51°9.394 2°36.714 10.6 271 9.1 100950 86
2002-11-29 09:51:31 51°9.389 2°36.699 10.3 272 9.1 100950 86
2002-11-29 09:51:36 51°9.385 2°36.685 10.5 274 9.1 100950 86
2002-11-29 09:51:40 51°9.381 2°36.675 10.1 272 9.1 100960 86
2002-11-29 09:51:46 51°9.375 2°36.661 10.6 270 9.1 100960 86
2002-11-29 09:51:51 51°9.371 2°36.649 10.1 273 9.1 100970 86
2002-11-29 09:51:56 51°9.366 2°36.639 10.4 271 9.1 100970 86
2002-11-29 09:52:00 51°9.363 2°36.631 10.2 273 9.1 100970 86
2002-11-29 09:52:04 51°9.359 2°36.624 11.4 271 9.1 100970 86
2002-11-29 09:52:11 51°9.353 2°36.612 10.9 272 9.1 100970 86
2002-11-29 09:52:16 51°9.349 2°36.604 10.2 269 9.1 100970 86
2002-11-29 09:52:20 51°9.346 2°36.599 10 271 9.1 100970 86
2002-11-29 09:52:24 51°9.342 2°36.593 9.2 270 9.1 100970 86
2002-11-29 09:52:30 51°9.338 2°36.585 9.4 271 9.1 100970 86
2002-11-29 09:52:35 51°9.334 2°36.579 9.7 272 9.1 100970 86
2002-11-29 09:52:40 51°9.33 2°36.574 9.2 267 9.1 100960 86
2002-11-29 09:52:46 51°9.325 2°36.568 9.6 262 9.1 100960 86
2002-11-29 09:52:51 51°9.322 2°36.564 9.3 265 9.1 100960 86
2002-11-29 09:52:56 51°9.318 2°36.56 9.5 261 9.1 100960 86
2002-11-29 09:53:00 51°9.315 2°36.557 9.8 258 9.1 100970 86
2002-11-29 09:53:06 51°9.311 2°36.552 9.8 259 9.1 100970 86
2002-11-29 09:53:10 51°9.308 2°36.549 9.9 258 9.1 100980 86
2002-11-29 09:53:16 51°9.304 2°36.546 9.4 261 9.1 100980 86
2002-11-29 09:53:20 51°9.302 2°36.543 9.3 260 9.1 100970 86
2002-11-29 09:53:24 51°9.299 2°36.541 9.2 258 9.1 100970 86
2002-11-29 09:53:30 51°9.296 2°36.538 9.9 259 9.1 100970 86
2002-11-29 09:53:36 51°9.292 2°36.535 9.6 255 9.1 100970 86
2002-11-29 09:53:40 51°9.29 2°36.534 8.3 256 9.1 100970 86
2002-11-29 09:53:46 51°9.287 2°36.531 8.5 258 9.1 100970 86
2002-11-29 09:53:50 51°9.285 2°36.529 8.4 258 9.1 100970 85
2002-11-29 09:53:55 51°9.282 2°36.527 8.2 256 9.1 100970 85
2002-11-29 09:54:00 51°9.28 2°36.526 7.9 254 9.1 100970 85
2002-11-29 09:54:04 51°9.278 2°36.524 8 255 9.1 100970 85
2002-11-29 09:54:10 51°9.275 2°36.522 7.6 254 9.1 100970 85
2002-11-29 09:54:16 51°9.272 2°36.52 8.9 254 9.1 100970 85
2002-11-29 09:54:20 51°9.27 2°36.519 7.7 252 9.1 100980 86
2002-11-29 09:54:24 51°9.268 2°36.518 7.8 256 9.1 100980 86
2002-11-29 09:54:30 51°9.266 2°36.517 8.8 255 9.1 100980 86
2002-11-29 09:54:35 51°9.264 2°36.515 8.8 256 9.1 100980 86
2002-11-29 09:54:40 51°9.262 2°36.514 8.8 257 9.1 100980 86
2002-11-29 09:54:46 51°9.26 2°36.513 9 257 9.1 100980 86
2002-11-29 09:54:50 51°9.259 2°36.512 8.9 253 9.2 100970 86
2002-11-29 09:54:55 51°9.257 2°36.51 8.5 254 9.2 100970 86
2002-11-29 09:55:00 51°9.255 2°36.509 9.1 254 9.2 100970 86
2002-11-29 09:55:06 51°9.253 2°36.507 9.1 253 9.2 100970 86
2002-11-29 09:55:10 51°9.251 2°36.506 8.8 255 9.1 100980 86
2002-11-29 09:55:15 51°9.249 2°36.505 8.5 252 9.1 100980 86
2002-11-29 09:55:20 51°9.247 2°36.504 7.3 251 9.2 100980 86
2002-11-29 09:55:26 51°9.245 2°36.502 8.2 260 9.2 100980 86
2002-11-29 09:55:31 51°9.244 2°36.501 8.3 258 9.1 100970 86
2002-11-29 09:55:36 51°9.242 2°36.499 7.9 251 9.1 100970 86
2002-11-29 09:55:40 51°9.241 2°36.498 8.6 256 9.2 100970 86
2002-11-29 09:55:44 51°9.24 2°36.497 9.7 261 9.2 100970 86
2002-11-29 09:55:50 51°9.238 2°36.495 8.9 262 9.1 100980 86
2002-11-29 09:55:56 51°9.237 2°36.494 8.8 258 9.1 100980 86
2002-11-29 09:56:00 51°9.235 2°36.492 8.5 258 9.2 100970 86
2002-11-29 09:56:04 51°9.234 2°36.492 9.4 264 9.2 100970 86
2002-11-29 09:56:10 51°9.232 2°36.49 8.2 271 9.2 100980 86
2002-11-29 09:56:16 51°9.231 2°36.488 9 266 9.2 100980 86
2002-11-29 09:56:20 51°9.23 2°36.486 8.1 270 9.1 100970 86
2002-11-29 09:56:26 51°9.229 2°36.485 8.8 266 9.1 100970 86
2002-11-29 09:56:31 51°9.228 2°36.483 7.9 264 9.2 100970 86
2002-11-29 09:56:36 51°9.227 2°36.482 9 268 9.2 100970 86
2002-11-29 09:56:40 51°9.226 2°36.48 9.5 266 9.2 100970 86
2002-11-29 09:56:45 51°9.225 2°36.479 8.8 267 9.2 100970 86
2002-11-29 09:56:50 51°9.224 2°36.477 9.4 269 9.2 100970 86
2002-11-29 09:56:55 51°9.223 2°36.475 9.4 274 9.2 100970 86
2002-11-29 09:57:00 51°9.222 2°36.473 9 274 9.2 100980 86
2002-11-29 09:57:06 51°9.221 2°36.471 8.2 270 9.2 100980 86
2002-11-29 09:57:11 51°9.221 2°36.469 8.9 270 9.2 100970 86
2002-11-29 09:57:15 51°9.22 2°36.468 8.8 273 9.2 100970 86
2002-11-29 09:57:20 51°9.219 2°36.466 9 275 9.2 100970 86
2002-11-29 09:57:24 51°9.219 2°36.465 8.3 271 9.2 100970 86
2002-11-29 09:57:30 51°9.218 2°36.462 8.3 274 9.2 100970 86
2002-11-29 09:57:35 51°9.217 2°36.46 9.1 275 9.2 100970 86
2002-11-29 09:57:40 51°9.216 2°36.458 8.8 277 9.2 100980 86
2002-11-29 09:57:44 51°9.216 2°36.456 9.2 272 9.2 100980 86
2002-11-29 09:57:51 51°9.216 2°36.454 8.7 275 9.2 100980 86
2002-11-29 09:57:56 51°9.215 2°36.452 8.8 275 9.2 100980 86
2002-11-29 09:58:00 51°9.215 2°36.45 7.9 280 9.2 100970 86
2002-11-29 09:58:06 51°9.214 2°36.448 7.8 282 9.2 100970 86
2002-11-29 09:58:10 51°9.214 2°36.447 8 285 9.2 100970 86
2002-11-29 09:58:15 51°9.214 2°36.444 7.7 284 9.2 100970 86
2002-11-29 09:58:20 51°9.213 2°36.443 7.5 289 9.2 100980 86
2002-11-29 09:58:26 51°9.213 2°36.44 7.7 289 9.2 100980 86
2002-11-29 09:58:31 51°9.212 2°36.438 8.5 284 9.2 100970 86
2002-11-29 09:58:36 51°9.212 2°36.436 7.9 285 9.2 100970 86
2002-11-29 09:58:40 51°9.212 2°36.434 7.6 287 9.2 100980 86
2002-11-29 09:58:46 51°9.211 2°36.432 7.4 280 9.2 100980 86
2002-11-29 09:58:50 51°9.211 2°36.43 7.2 283 9.2 100980 86
2002-11-29 09:58:56 51°9.211 2°36.428 8 279 9.2 100980 86
2002-11-29 09:59:00 51°9.21 2°36.426 7.8 282 9.2 100980 86
2002-11-29 09:59:06 51°9.21 2°36.424 8.1 281 9.2 100980 86
2002-11-29 09:59:10 51°9.209 2°36.422 8.3 284 9.2 100980 86
2002-11-29 09:59:15 51°9.209 2°36.42 8.5 281 9.2 100980 86
2002-11-29 09:59:20 51°9.209 2°36.418 8 284 9.3 100980 86
2002-11-29 09:59:26 51°9.208 2°36.415 8.3 287 9.3 100980 86
2002-11-29 09:59:31 51°9.208 2°36.413 8.1 281 9.3 100980 86
2002-11-29 09:59:35 51°9.208 2°36.411 8.2 286 9.3 100980 86
2002-11-29 09:59:40 51°9.207 2°36.409 8 289 9.3 100980 86
2002-11-29 09:59:46 51°9.207 2°36.407 8.3 285 9.3 100980 86